Terminal Aerodrome Forecast
Issued by NWS Cleveland, OH

Home | Current Version | Previous Version | Text Only | Print | Product List | Glossary Off
Versions: 1 2 3 4 5 6 7 8 9 10 11 12 13 14 15 16 17 18 19 20 21 22 23 24 25 26 27 28 29 30 31 32

000
FTUS41 KCLE 260535
TAFCLE
TAF
KCLE 260535Z 2606/2712 22005KT P6SM VCSH SCT035 BKN080
      TEMPO 2606/2610 3SM -SHRA BKN035 OVC080
     FM261000 30004KT P6SM VCSH SCT020 BKN040
      TEMPO 2611/2615 SCT015 BKN020
     FM261500 36006KT P6SM BKN035 OVC250
     FM262200 36005KT P6SM SKC
     FM270100 VRB03KT P6SM SKC=

USA.gov is the U.S. government's official web portal to all federal, state and local government web resources and services.